Tug "trevor" — WCP6921 — position and weather

sailwx.info

Track history (hours):
 
Tides and Currents Weather Stations Pressure Air Temp Water Temp Dewpoint Dewpoint Depression Visibility Wind Speed Wind Dir Waves Ship Positions

Tug "trevor"

Owner: WEEKS MARINE, INC., CRANFORD, NJ. More information available from US FCC via Universal Licensing System and Coast Guard Vessel Documentation Center.

Last reported at 2017-Nov-19 08:21 UTC. Time now 2017-Nov-19 08:47 UTC.
Position N 39°09' W 076°19'.

Length 21 m; draft 3 m.

Type: Towing. MMSI: 366643140.

Date/timePositionNaut miles runAvg speedWind from/ knotsBaromVisibWave heightAir tempDewpointWater temp
2017-Nov-19 08:21N 39°09' W 076°19'2 6.8
2017-Nov-19 08:00N 39°11' W 076°17'4 7.0
2017-Nov-19 07:30N 39°13' W 076°15'4 7.1
2017-Nov-19 07:00N 39°17' W 076°14'4 7.3
2017-Nov-19 06:30N 39°20' W 076°11'4 8.0
2017-Nov-19 06:00N 39°22' W 076°07'4 7.8
2017-Nov-19 05:30N 39°24' W 076°03'4 7.2
2017-Nov-19 05:00N 39°27' W 075°60'2 4.0
2017-Nov-19 04:30N 39°28' W 075°58'3 6.0
2017-Nov-19 04:00N 39°30' W 075°55'3 6.3
2017-Nov-19 03:30N 39°32' W 075°51'3 5.4
2017-Nov-19 03:00N 39°32' W 075°48'3 5.9
2017-Nov-19 02:30N 39°32' W 075°44'3 5.8
2017-Nov-19 02:00N 39°33' W 075°40'3 5.4
2017-Nov-19 01:30N 39°33' W 075°37'3 5.3
2017-Nov-19 01:00N 39°34' W 075°34'3 6.2
2017-Nov-19 00:30N 39°37' W 075°35'4 8.1
2017-Nov-19 00:00N 39°40' W 075°32'4 8.9
2017-Nov-18 23:31N 39°44' W 075°30'4 8.9
2017-Nov-18 23:00N 39°48' W 075°26'5 9.3
2017-Nov-18 22:30N 39°50' W 075°21'5 9.1
2017-Nov-18 22:01N 39°51' W 075°15'4 7.5
2017-Nov-18 21:30N 39°53' W 075°12'0 0.0
2017-Nov-18 21:01N 39°53' W 075°12'0 0.0
2017-Nov-18 20:31N 39°53' W 075°12'0 0.6
2017-Nov-18 20:00N 39°53' W 075°12'3 6.0
2017-Nov-18 19:31N 39°54' W 075°08'3 6.4
2017-Nov-18 19:01N 39°57' W 075°08'0 0.9
2017-Nov-18 18:30N 39°57' W 075°08'0 0.1
2017-Nov-18 18:01N 39°57' W 075°08'0 0.0
2017-Nov-18 17:31N 39°57' W 075°08'0 0.0
2017-Nov-18 17:01N 39°57' W 075°08'0 0.0
2017-Nov-18 16:30N 39°57' W 075°08'0 0.0
2017-Nov-18 16:01N 39°57' W 075°08'0 0.0
2017-Nov-18 15:30N 39°57' W 075°08'0 0.0
2017-Nov-18 15:01N 39°57' W 075°08'0 0.0
2017-Nov-18 14:31N 39°57' W 075°08'0 0.0
2017-Nov-18 14:01N 39°57' W 075°08'0 0.0
2017-Nov-18 13:31N 39°57' W 075°08'0 0.0
2017-Nov-18 13:00N 39°57' W 075°08'0 1.0
2017-Nov-18 12:30N 39°57' W 075°08'4 8.2
2017-Nov-18 12:00N 39°53' W 075°09'4 8.0
2017-Nov-18 11:31N 39°52' W 075°14'4 8.0
2017-Nov-18 11:01N 39°51' W 075°19'4 7.6
2017-Nov-18 10:31N 39°49' W 075°23'4 8.1
2017-Nov-18 10:00N 39°47' W 075°28'4 7.9
2017-Nov-18 09:30N 39°44' W 075°30'4 7.7
2017-Nov-18 09:00N 39°40' W 075°32'4 7.3
2017-Nov-18 08:30N 39°37' W 075°35'3 6.8
2017-Nov-18 08:00N 39°34' W 075°33'5 9.4
2017-Nov-18 07:30N 39°33' W 075°39'4 9.0
2017-Nov-18 07:00N 39°32' W 075°45'4 8.5
2017-Nov-18 06:30N 39°32' W 075°51'4 8.3
2017-Nov-18 06:00N 39°30' W 075°55'4 8.7
2017-Nov-18 05:30N 39°27' W 075°59'4 8.8
2017-Nov-18 05:00N 39°24' W 076°03'4 8.6
2017-Nov-18 04:30N 39°22' W 076°08'16 8.8
2017-Nov-18 02:43N 39°08' W 076°19'2 9.5
2017-Nov-18 02:30N 39°06' W 076°20'5 9.3
2017-Nov-18 02:00N 39°02' W 076°21'5 9.3
2017-Nov-18 01:30N 38°58' W 076°24'6 9.4
2017-Nov-18 00:53N 38°52' W 076°26'115 8.7
2017-Nov-17 11:38N 36°57' W 076°20'1 9.1
2017-Nov-17 11:30N 36°56' W 076°20'4 8.5
2017-Nov-17 11:00N 36°52' W 076°19'4 8.0
2017-Nov-17 10:30N 36°48' W 076°17'3 5.3
2017-Nov-17 10:00N 36°45' W 076°18'3 5.4
2017-Nov-17 09:28N 36°44' W 076°15'  
2017-Nov-12 00:32N 35°46' W 075°32'0 0.0
2017-Nov-12 00:22N 35°46' W 075°32'0 0.0
2017-Nov-11 23:55N 35°46' W 075°32'0 0.0
2017-Nov-11 23:30N 35°46' W 075°32'0 0.0
2017-Nov-11 23:00N 35°46' W 075°32'0 0.0
2017-Nov-11 22:30N 35°46' W 075°32'0 0.2
2017-Nov-11 22:00N 35°46' W 075°32'0 0.1
2017-Nov-11 21:30N 35°46' W 075°32'0 0.1
2017-Nov-11 20:56N 35°46' W 075°32'  
Track history (hours):
 
Tides and Currents Weather Stations Pressure Air Temp Water Temp Dewpoint Dewpoint Depression Visibility Wind Speed Wind Dir Waves Ship Positions

Tug "trevor"

Owner: WEEKS MARINE, INC., CRANFORD, NJ. More information available from US FCC via Universal Licensing System and Coast Guard Vessel Documentation Center.

Last reported at 2017-Nov-19 08:21 UTC. Time now 2017-Nov-19 08:47 UTC.
Position N 39°09' W 076°19'.

Length 21 m; draft 3 m.

Type: Towing. MMSI: 366643140.

Date/timePositionNaut miles runAvg speedWind from/ knotsBaromVisibWave heightAir tempDewpointWater temp
2017-Nov-19 08:21N 39°09' W 076°19'2 6.8
2017-Nov-19 08:00N 39°11' W 076°17'4 7.0
2017-Nov-19 07:30N 39°13' W 076°15'4 7.1
2017-Nov-19 07:00N 39°17' W 076°14'4 7.3
2017-Nov-19 06:30N 39°20' W 076°11'4 8.0
2017-Nov-19 06:00N 39°22' W 076°07'4 7.8
2017-Nov-19 05:30N 39°24' W 076°03'4 7.2
2017-Nov-19 05:00N 39°27' W 075°60'2 4.0
2017-Nov-19 04:30N 39°28' W 075°58'3 6.0
2017-Nov-19 04:00N 39°30' W 075°55'3 6.3
2017-Nov-19 03:30N 39°32' W 075°51'3 5.4
2017-Nov-19 03:00N 39°32' W 075°48'3 5.9
2017-Nov-19 02:30N 39°32' W 075°44'3 5.8
2017-Nov-19 02:00N 39°33' W 075°40'3 5.4
2017-Nov-19 01:30N 39°33' W 075°37'3 5.3
2017-Nov-19 01:00N 39°34' W 075°34'3 6.2
2017-Nov-19 00:30N 39°37' W 075°35'4 8.1
2017-Nov-19 00:00N 39°40' W 075°32'4 8.9
2017-Nov-18 23:31N 39°44' W 075°30'4 8.9
2017-Nov-18 23:00N 39°48' W 075°26'5 9.3
2017-Nov-18 22:30N 39°50' W 075°21'5 9.1
2017-Nov-18 22:01N 39°51' W 075°15'4 7.5
2017-Nov-18 21:30N 39°53' W 075°12'0 0.0
2017-Nov-18 21:01N 39°53' W 075°12'0 0.0
2017-Nov-18 20:31N 39°53' W 075°12'0 0.6
2017-Nov-18 20:00N 39°53' W 075°12'3 6.0
2017-Nov-18 19:31N 39°54' W 075°08'3 6.4
2017-Nov-18 19:01N 39°57' W 075°08'0 0.9
2017-Nov-18 18:30N 39°57' W 075°08'0 0.1
2017-Nov-18 18:01N 39°57' W 075°08'0 0.0
2017-Nov-18 17:31N 39°57' W 075°08'0 0.0
2017-Nov-18 17:01N 39°57' W 075°08'0 0.0
2017-Nov-18 16:30N 39°57' W 075°08'0 0.0
2017-Nov-18 16:01N 39°57' W 075°08'0 0.0
2017-Nov-18 15:30N 39°57' W 075°08'0 0.0
2017-Nov-18 15:01N 39°57' W 075°08'0 0.0
2017-Nov-18 14:31N 39°57' W 075°08'0 0.0
2017-Nov-18 14:01N 39°57' W 075°08'0 0.0
2017-Nov-18 13:31N 39°57' W 075°08'0 0.0
2017-Nov-18 13:00N 39°57' W 075°08'0 1.0
2017-Nov-18 12:30N 39°57' W 075°08'4 8.2
2017-Nov-18 12:00N 39°53' W 075°09'4 8.0
2017-Nov-18 11:31N 39°52' W 075°14'4 8.0
2017-Nov-18 11:01N 39°51' W 075°19'4 7.6
2017-Nov-18 10:31N 39°49' W 075°23'4 8.1
2017-Nov-18 10:00N 39°47' W 075°28'4 7.9
2017-Nov-18 09:30N 39°44' W 075°30'4 7.7
2017-Nov-18 09:00N 39°40' W 075°32'4 7.3
2017-Nov-18 08:30N 39°37' W 075°35'3 6.8
2017-Nov-18 08:00N 39°34' W 075°33'5 9.4
2017-Nov-18 07:30N 39°33' W 075°39'4 9.0
2017-Nov-18 07:00N 39°32' W 075°45'4 8.5
2017-Nov-18 06:30N 39°32' W 075°51'4 8.3
2017-Nov-18 06:00N 39°30' W 075°55'4 8.7
2017-Nov-18 05:30N 39°27' W 075°59'4 8.8
2017-Nov-18 05:00N 39°24' W 076°03'4 8.6
2017-Nov-18 04:30N 39°22' W 076°08'16 8.8
2017-Nov-18 02:43N 39°08' W 076°19'2 9.5
2017-Nov-18 02:30N 39°06' W 076°20'5 9.3
2017-Nov-18 02:00N 39°02' W 076°21'5 9.3
2017-Nov-18 01:30N 38°58' W 076°24'6 9.4
2017-Nov-18 00:53N 38°52' W 076°26'115 8.7
2017-Nov-17 11:38N 36°57' W 076°20'1 9.1
2017-Nov-17 11:30N 36°56' W 076°20'4 8.5
2017-Nov-17 11:00N 36°52' W 076°19'4 8.0
2017-Nov-17 10:30N 36°48' W 076°17'3 5.3
2017-Nov-17 10:00N 36°45' W 076°18'3 5.4
2017-Nov-17 09:28N 36°44' W 076°15'  
2017-Nov-12 00:32N 35°46' W 075°32'0 0.0
2017-Nov-12 00:22N 35°46' W 075°32'0 0.0
2017-Nov-11 23:55N 35°46' W 075°32'0 0.0
2017-Nov-11 23:30N 35°46' W 075°32'0 0.0
2017-Nov-11 23:00N 35°46' W 075°32'0 0.0
2017-Nov-11 22:30N 35°46' W 075°32'0 0.2
2017-Nov-11 22:00N 35°46' W 075°32'0 0.1
2017-Nov-11 21:30N 35°46' W 075°32'0 0.1
2017-Nov-11 20:56N 35°46' W 075°32'  

Dump ship's entire track history